METAR Data
IDs: Format: Raw Decoded Include TAF

Data at: 1303 UTC 16 Jul 2019

KCAO 161255Z AUTO 00000KT 10SM CLR 21/12 A3011 RMK AO2 SLP115 T02060117
KCAO 161155Z AUTO 01003KT 10SM CLR 17/11 A3009 RMK AO2 SLP104 T01720106 10250 20161 53003
KCAO 161055Z AUTO 27005KT 10SM CLR 20/11 A3008 RMK AO2 SLP101 T02000106
KCAO 160955Z AUTO 27008KT 10SM CLR 22/11 A3007 RMK AO2 SLP098 T02170111
KCAO 160855Z AUTO 28010KT 10SM CLR 22/12 A3008 RMK AO2 SLP101 T02170117 58005
KCAO 160755Z AUTO 24006KT 10SM CLR 23/12 A3009 RMK AO2 SLP105 T02330117
KCAO 160655Z AUTO 21009KT 10SM CLR 24/12 A3009 RMK AO2 SLP105 T02390117 403440172
KCAO 160555Z AUTO 21013KT 10SM CLR 25/12 A3010 RMK AO2 SLP106 T02500117 10333 20228 51013
KCAO 160455Z AUTO 16009KT 10SM CLR 23/12 A3008 RMK AO2 SLP103 T02330122
KCAO 160355Z AUTO 17009KT 10SM CLR 24/12 A3008 RMK AO2 SLP103 T02440117
KCAO 160255Z AUTO 15010KT 10SM CLR 27/12 A3005 RMK AO2 SLP096 T02720117 53006
KCAO 160155Z AUTO 15009KT 10SM CLR 28/11 A3005 RMK AO2 SLP094 T02830111
KCAO 160055Z AUTO 16013KT 10SM CLR 31/11 A3003 RMK AO2 LTG DSNT N AND NW SLP089 T03110106
KCAO 152355Z AUTO 17016KT 10SM CLR 33/10 A3003 RMK AO2 SLP083 T03280100 10344 20317 56013
KCAO 152255Z AUTO 16015G22KT 10SM CLR 34/10 A3003 RMK AO2 SLP085 T03390100
KCAO 152155Z AUTO 17009G24KT 10SM CLR 34/10 A3004 RMK AO2 SLP090 T03390100
KCAO 152055Z AUTO 19011G19KT 10SM CLR 33/09 A3007 RMK AO2 SLP102 T03330094 58011
KCAO 151955Z AUTO 22013G20KT 10SM CLR 33/10 A3009 RMK AO2 SLP106 T03330100
KCAO 151855Z AUTO 19009G18KT 10SM CLR 33/11 A3010 RMK AO2 SLP110 T03280106
KCAO 151755Z AUTO 24011G18KT 10SM CLR 32/11 A3011 RMK AO2 SLP117 T03170106 10328 20172 56010
KCAO 151655Z AUTO 22011G19KT 10SM CLR 31/11 A3012 RMK AO2 SLP121 T03110111
KCAO 151555Z AUTO 22010KT 10SM CLR 28/12 A3013 RMK AO2 SLP127 T02830117
KCAO 151455Z AUTO 21008KT 10SM CLR 25/12 A3015 RMK AO2 SLP123 T02500122 52002
KCAO 151355Z AUTO 24005KT 10SM CLR 23/12 A3015 RMK AO2 SLP123 T02330122
KCAO 151255Z AUTO 23006KT 10SM CLR 20/13 A3014 RMK AO2 SLP133 T02000128
KCAO 151155Z AUTO 00000KT 10SM CLR 17/12 A3014 RMK AO2 SLP134 T01720117 10217 20172 55006
KCAO 151055Z AUTO 29005KT 10SM CLR 20/11 A3012 RMK AO2 SLP119 T02000111
KCAO 150955Z AUTO 27010KT 10SM CLR 21/12 A3014 RMK AO2 SLP124 T02060117
KCAO 150855Z AUTO 26011KT 10SM CLR 20/12 A3016 RMK AO2 SLP130 T02000117 58009
KCAO 150755Z AUTO 22004KT 10SM SCT100 21/10 A3017 RMK AO2 SLP133 T02110100
KCAO 150655Z AUTO 24008KT 10SM BKN095 21/11 A3020 RMK AO2 SLP142 T02110106 403440172
KCAO 150555Z AUTO 18006KT 10SM CLR 20/10 A3019 RMK AO2 SLP145 T02000100 10300 20200 51007
KCAO 150455Z AUTO 14004KT 10SM CLR 21/09 A3019 RMK AO2 SLP143 T02110094
KCAO 150355Z AUTO 15007KT 10SM CLR 22/09 A3019 RMK AO2 SLP145 T02220094
KCAO 150255Z AUTO 14007KT 10SM CLR 24/09 A3017 RMK AO2 SLP130 T02440094 53011
KCAO 150155Z AUTO 12010KT 10SM CLR 26/09 A3014 RMK AO2 SLP120 T02610094